Viru Viru International Airport

SLVR · Santa Cruz, Boliwia

Historia METAR SLVR · Port lotniczy Viru Viru

Poniżej widzisz METAR-y z ostatnich kilku dni. Wybierz rok, aby przeglądać starsze METAR-y, począwszy od roku 2007.

2 marca 2024

Czas Kod Pogoda Temp. Widoczność Sufit Wiatr METAR/SPECI
23:00
V
27 °C 10 km+ - 340° 340° 6 kt METAR SLVR 030300Z 34006KT 9999 NSC 27/25 Q1011
22:00
V
28 °C 10 km+ - 350° 350° 7 kt METAR SLVR 030200Z 35007KT 9999 NSC 28/25 Q1010
21:00
V
28 °C 10 km+ - 350° 350° 5 kt METAR SLVR 030100Z 35005KT 9999 NSC 28/25 Q1009
20:00
V
28 °C 10 km+ - 360° 360° 7 kt METAR SLVR 030000Z 36007KT 9999 NSC 28/24 Q1009
19:00
V
29 °C 10 km+ - 360° 360° 5 kt METAR SLVR 022300Z 36005KT 9999 FEW020 SCT200 29/24 Q1008
18:00
V
32 °C 10 km+ 20.000 ft 350° 350° 10 kt METAR SLVR 022200Z 35010KT 9999 FEW023 BKN200 32/23 Q1007
17:00
V
33 °C 10 km+ 20.000 ft 350° 350° 11 kt METAR SLVR 022100Z 35011KT 9999 FEW023 BKN200 33/23 Q1007
16:00
V
33 °C 10 km+ 20.000 ft 340° 340° 16 kt METAR SLVR 022000Z 34016KT 9999 FEW023 BKN200 33/23 Q1008
15:00
V
34 °C 10 km+ 20.000 ft 350° 350° 16 kt METAR SLVR 021900Z 35016KT 9999 FEW023 BKN200 34/23 Q1009
14:00
V
34 °C 10 km+ 20.000 ft 340° 340° 15 - 26 kt METAR SLVR 021800Z 34015G26KT 9999 SCT023 BKN200 34/24 Q1010
13:00
V
34 °C 10 km+ - 340° 340° 15 - 25 kt METAR SLVR 021700Z 34015G25KT 9999 SCT020 SCT200 34/24 Q1011
12:00
V
34 °C 10 km+ - 340° 340° 16 - 27 kt METAR SLVR 021600Z 34016G27KT 9999 SCT020 SCT200 34/24 Q1012
11:00
V
32 °C 10 km+ 20.000 ft 330° 330° 15 - 26 kt METAR SLVR 021500Z 33015G26KT 9999 SCT020 BKN200 32/24 Q1013
10:00
V
31 °C 10 km+ 20.000 ft 340° 340° 14 - 24 kt METAR SLVR 021400Z 34014G24KT 9999 FEW017 BKN200 31/25 Q1013
09:00
V
29 °C 10 km+ - 340° 340° 12 kt METAR SLVR 021300Z 34012KT 9999 NSC 29/25 Q1013
08:00
V
27 °C 10 km+ - 340° 340° 10 kt METAR SLVR 021200Z 34010KT 9999 NSC 27/24 Q1013
07:00
V
26 °C 10 km+ - 340° 340° 7 kt METAR SLVR 021100Z 34007KT 9999 NSC 26/23 Q1012
06:00
V
25 °C 10 km+ - 350° 350° 4 kt METAR SLVR 021000Z 35004KT 9999 NSC 25/23 Q1012
05:00
V
24 °C 10 km+ - 340° 340° 3 kt METAR SLVR 020900Z 34003KT 9999 NSC 24/23 Q1012
04:00
V
24 °C 10 km+ - 320° 320° 5 kt METAR SLVR 020800Z 32005KT 9999 NSC 24/23 Q1012
03:00
V
24 °C 10 km+ - 340° 340° 5 kt METAR SLVR 020700Z 34005KT 9999 NSC 24/23 Q1012
02:00
V
25 °C 10 km+ - 320° 320° 5 kt METAR SLVR 020600Z 32005KT 9999 NSC 25/23 Q1012
01:00
V
25 °C 10 km+ - 310° 310° 5 kt METAR SLVR 020500Z 31005KT 9999 NSC 25/24 Q1013
00:00
V
25 °C 10 km+ - 300° 300° 4 kt METAR SLVR 020400Z 30004KT 9999 NSC 25/24 Q1013

1 marca 2024

Czas Kod Pogoda Temp. Widoczność Sufit Wiatr METAR/SPECI
23:00
V
26 °C 10 km+ - 310° 310° 5 kt METAR SLVR 020300Z 31005KT 9999 NSC 26/24 Q1013
22:00
V
26 °C 10 km+ - 330° 330° 4 kt METAR SLVR 020200Z 33004KT 9999 NSC 26/24 Q1012
21:00
V
27 °C 10 km+ - 340° 340° 4 kt METAR SLVR 020100Z 34004KT 9999 NSC 27/24 Q1012
20:00
V
28 °C 10 km+ - 330° 330° 6 kt METAR SLVR 020000Z 33006KT 9999 NSC 28/24 Q1011
19:00
V
29 °C 10 km+ - 350° 350° 4 kt METAR SLVR 012300Z 35004KT 9999 NSC 29/23 Q1010
18:00
V
31 °C 10 km+ - 350° 350° 6 kt METAR SLVR 012200Z 35006KT 9999 NSC 31/23 Q1010
17:00
V
33 °C 10 km+ 20.000 ft 330° 330° 12 kt METAR SLVR 012100Z 33012KT 9999 FEW025 BKN200 33/22 Q1009
16:00
V
34 °C 10 km+ 20.000 ft 340° 340° 13 kt METAR SLVR 012000Z 34013KT 9999 FEW025 BKN200 34/22 Q1010
15:00
V
34 °C 10 km+ 20.000 ft 340° 340° 11 kt METAR SLVR 011900Z 34011KT 9999 FEW025 BKN200 34/22 Q1011
14:00
V
34 °C 10 km+ - 350° 350° 10 kt METAR SLVR 011800Z 35010KT 9999 FEW020 SCT200 34/22 Q1012
13:00
V
34 °C 10 km+ - 330° 330° 11 kt METAR SLVR 011700Z 33011KT 9999 FEW020 SCT200 34/22 Q1013
12:00
V
33 °C 10 km+ - 340° 340° 10 kt METAR SLVR 011600Z 34010KT 9999 FEW020 SCT200 33/22 Q1014
11:00
V
33 °C 10 km+ - 330° 330° 11 kt METAR SLVR 011500Z 33011KT 9999 NSC 33/23 Q1014
10:00
V
31 °C 10 km+ - 330° 330° 10 kt METAR SLVR 011400Z 33010KT 9999 NSC 31/23 Q1014
09:00
V
29 °C 10 km+ - 330° 330° 8 kt METAR SLVR 011300Z 33008KT 9999 NSC 29/23 Q1014
08:00
V
26 °C 10 km+ - 340° 340° 7 kt METAR SLVR 011200Z 34007KT 9999 NSC 26/23 Q1014
07:00
V
24 °C 10 km+ - 360° 360° 3 kt METAR SLVR 011100Z 36003KT 9999 NSC 24/22 Q1013
06:00
V
22 °C 10 km+ - 030° 030° 3 kt METAR SLVR 011000Z 03003KT 9999 FEW070 22/21 Q1013
05:00
V
23 °C 10 km+ - 020° 020° 3 kt METAR SLVR 010900Z 02003KT 9999 NSC 23/22 Q1012
04:00
V
23 °C 10 km+ - 020° 020° 3 kt METAR SLVR 010800Z 02003KT 9999 NSC 23/22 Q1012
03:00
V
24 °C 10 km+ - 340° 340° 4 kt METAR SLVR 010700Z 34004KT 9999 NSC 24/23 Q1012
02:00
V
24 °C 10 km+ - 320° 320° 6 kt METAR SLVR 010600Z 32006KT 9999 NSC 24/23 Q1012
01:00
V
25 °C 10 km+ - 320° 320° 8 kt METAR SLVR 010500Z 32008KT 9999 NSC 25/24 Q1013
00:00
V
25 °C 10 km+ - 360° 360° 5 kt METAR SLVR 010400Z 36005KT 9999 NSC 25/24 Q1013

29 lutego 2024

Czas Kod Pogoda Temp. Widoczność Sufit Wiatr METAR/SPECI
23:00
V
26 °C 10 km+ - 340° 340° 3 kt METAR SLVR 010300Z 34003KT 9999 FEW020 26/25 Q1014
22:00
V
27 °C 10 km+ - 360° 360° 5 kt METAR SLVR 010200Z 36005KT 9999 SCT020 27/25 Q1013
21:00
V
27 °C 10 km+ - 020° 020° 4 kt METAR SLVR 010100Z 02004KT 9999 FEW020 SCT200 27/25 Q1011
20:00
V
28 °C 10 km+ 20.000 ft 360° 360° 4 kt METAR SLVR 010000Z 36004KT 9999 FEW020 BKN200 28/25 Q1011
19:00
V
28 °C 10 km+ 20.000 ft 010° 010° 6 kt METAR SLVR 292300Z 01006KT 9999 FEW023 FEW027CB BKN200 28/25 Q1010
18:00
V
30 °C 10 km+ 20.000 ft 350° 350° 8 kt METAR SLVR 292200Z 35008KT 9999 FEW023 FEW027CB BKN200 30/25 Q1010
17:00
V
32 °C 10 km+ - 350° 350° 10 kt METAR SLVR 292100Z 35010KT 9999 FEW025 FEW030CB SCT200 32/24 Q1010
16:00
V
33 °C 10 km+ - 350° 350° 12 kt METAR SLVR 292000Z 35012KT 9999 SCT027 33/24 Q1010
15:00
V
33 °C 10 km+ - 350° 350° 13 kt METAR SLVR 291900Z 35013KT 9999 SCT027 33/23 Q1011
14:00
V
34 °C 10 km+ - 350° 350° 14 kt METAR SLVR 291800Z 35014KT 9999 SCT025 FEW030CB 34/24 Q1012
13:00
V
33 °C 10 km+ - 340° 340° 15 kt METAR SLVR 291700Z 34015KT 9999 SCT025 33/24 Q1013
12:00
V
32 °C 10 km+ - 330° 330° 15 kt METAR SLVR 291600Z 33015KT 9999 FEW025 32/25 Q1014
11:00
V
32 °C 10 km+ - 330° 330° 12 kt METAR SLVR 291500Z 33012KT 9999 FEW023 32/25 Q1014
10:00
V
30 °C 10 km+ - 330° 330° 13 kt METAR SLVR 291400Z 33013KT 9999 FEW020 30/24 Q1015
09:00
V
29 °C 10 km+ - 330° 330° 10 kt METAR SLVR 291300Z 33010KT 9999 NSC 29/24 Q1014
08:00
V
26 °C 10 km+ - 340° 340° 6 kt METAR SLVR 291200Z 34006KT 9999 NSC 26/24 Q1014
07:00
V
24 °C 10 km+ - 360° 360° 3 kt METAR SLVR 291100Z 36003KT 9999 NSC 24/23 Q1013
06:00
V
23 °C 10 km+ - 330° 330° 6 kt METAR SLVR 291000Z 33006KT 9999 NSC 23/23 Q1012
05:00
V
23 °C 10 km+ - 320° 320° 5 kt METAR SLVR 290900Z 32005KT 9999 NSC 23/22 Q1011
04:00
V
23 °C 10 km+ - 340° 340° 5 kt METAR SLVR 290800Z 34005KT 9999 NSC 23/22 Q1011
03:00
V
24 °C 10 km+ - 350° 350° 5 kt METAR SLVR 290700Z 35005KT 9999 NSC 24/23 Q1011
02:00
V
24 °C 10 km+ - 340° 340° 4 kt METAR SLVR 290600Z 34004KT 9999 NSC 24/23 Q1012